createdAt,value
2022-09-18T00:01:21.840Z,0.00
2022-09-18T00:06:21.714Z,0.00
2022-09-18T00:11:21.655Z,0.00
2022-09-18T00:16:21.641Z,0.00
2022-09-18T00:21:21.511Z,0.00
2022-09-18T00:26:21.452Z,0.00
2022-09-18T00:31:21.475Z,0.00
2022-09-18T00:36:21.322Z,0.00
2022-09-18T00:41:21.251Z,0.00
2022-09-18T00:46:21.272Z,0.00
2022-09-18T00:51:21.120Z,0.00
2022-09-18T00:56:21.060Z,0.00
2022-09-18T01:01:21.081Z,0.00
2022-09-18T01:06:20.930Z,0.00
2022-09-18T01:11:20.861Z,0.00
2022-09-18T01:16:20.829Z,0.00
2022-09-18T01:21:20.728Z,0.00
2022-09-18T01:26:20.670Z,0.00
2022-09-18T01:31:20.762Z,0.00
2022-09-18T01:36:20.541Z,0.00
2022-09-18T01:41:20.473Z,0.00
2022-09-18T01:46:20.481Z,0.00
2022-09-18T01:51:20.345Z,0.00
2022-09-18T01:56:20.288Z,0.00
2022-09-18T02:01:20.218Z,0.00
2022-09-18T02:06:20.158Z,0.00
2022-09-18T02:11:20.077Z,0.00
2022-09-18T02:16:20.116Z,0.00
2022-09-18T02:21:19.954Z,0.00
2022-09-18T02:26:19.886Z,0.00
2022-09-18T02:31:19.942Z,0.00
2022-09-18T02:36:19.758Z,0.00
2022-09-18T02:41:19.684Z,0.00
2022-09-18T02:46:19.672Z,0.00
2022-09-18T02:51:19.554Z,0.00
2022-09-18T02:56:19.494Z,0.00
2022-09-18T03:01:19.478Z,0.00
2022-09-18T03:06:19.374Z,0.00
2022-09-18T03:11:19.300Z,0.00
2022-09-18T03:16:19.309Z,0.00
2022-09-18T03:21:19.161Z,0.00
2022-09-18T03:26:19.113Z,0.00
2022-09-18T03:31:19.143Z,0.00
2022-09-18T03:36:18.975Z,0.00
2022-09-18T03:41:18.910Z,0.00
2022-09-18T03:46:18.894Z,0.00
2022-09-18T03:51:18.782Z,0.00
2022-09-18T03:56:18.722Z,0.00
2022-09-18T04:01:18.650Z,0.00
2022-09-18T04:06:18.591Z,0.00
2022-09-18T04:11:18.517Z,0.00
2022-09-18T04:16:18.518Z,0.00
2022-09-18T04:21:18.384Z,0.00
2022-09-18T04:26:18.325Z,0.00
2022-09-18T04:31:18.284Z,0.00
2022-09-18T04:36:18.193Z,0.00
2022-09-18T04:41:18.120Z,0.00
2022-09-18T04:46:18.088Z,0.00
2022-09-18T04:51:17.990Z,0.00
2022-09-18T04:56:17.933Z,5.62
2022-09-18T05:01:17.957Z,16.87
2022-09-18T05:06:17.801Z,33.75
2022-09-18T05:11:17.730Z,50.62
2022-09-18T05:16:17.731Z,67.50
2022-09-18T05:21:17.596Z,90.00
2022-09-18T05:26:17.538Z,118.12
2022-09-18T05:31:17.533Z,135.00
2022-09-18T05:36:17.408Z,135.00
2022-09-18T05:41:17.333Z,168.75
2022-09-18T05:46:17.328Z,337.50
2022-09-18T05:51:17.203Z,376.87
2022-09-18T05:56:17.144Z,472.50
2022-09-18T06:01:17.071Z,703.12
2022-09-18T06:06:17.014Z,489.37
2022-09-18T06:11:16.940Z,1226.25
2022-09-18T06:16:16.962Z,1524.37
2022-09-18T06:21:16.809Z,759.37
2022-09-18T06:26:16.752Z,680.62
2022-09-18T06:31:16.800Z,742.50
2022-09-18T06:36:16.628Z,478.12
2022-09-18T06:41:16.548Z,495.00
2022-09-18T06:46:16.521Z,478.12
2022-09-18T06:51:16.411Z,596.25
2022-09-18T06:56:16.353Z,2115.00
2022-09-18T07:01:16.369Z,3943.12
2022-09-18T07:06:16.224Z,3740.62
2022-09-18T07:11:16.162Z,2806.87
2022-09-18T07:16:16.128Z,4162.50
2022-09-18T07:21:16.020Z,4680.00
2022-09-18T07:26:15.962Z,4809.37
2022-09-18T07:31:15.958Z,4674.37
2022-09-18T07:36:15.831Z,4455.00
2022-09-18T07:41:15.757Z,4533.75
2022-09-18T07:46:15.750Z,4263.75
2022-09-18T07:51:15.645Z,4831.87
2022-09-18T07:56:15.567Z,4725.00
2022-09-18T08:01:15.495Z,4477.50
2022-09-18T08:06:15.438Z,4196.25
2022-09-18T08:11:15.369Z,4438.12
2022-09-18T08:16:15.368Z,3166.87
2022-09-18T08:21:15.235Z,5383.12
2022-09-18T08:26:20.024Z,3723.75
2022-09-18T08:31:15.140Z,1001.25
2022-09-18T08:36:15.052Z,5501.25
2022-09-18T08:41:14.977Z,1485.00
2022-09-18T08:46:14.947Z,4398.75
2022-09-18T08:51:14.848Z,1237.50
2022-09-18T08:56:14.792Z,590.62
2022-09-18T09:01:14.795Z,320.62
2022-09-18T09:06:14.665Z,371.25
2022-09-18T09:11:14.590Z,196.87
2022-09-18T09:16:14.627Z,1366.87
2022-09-18T09:21:14.462Z,354.37
2022-09-18T09:26:14.403Z,736.87
2022-09-18T09:31:14.376Z,4348.12
2022-09-18T09:36:14.274Z,5242.50
2022-09-18T09:41:14.202Z,1951.87
2022-09-18T09:46:17.036Z,1316.25
2022-09-18T09:51:14.071Z,1096.87
2022-09-18T09:56:14.013Z,528.75
2022-09-18T10:01:14.005Z,376.87
2022-09-18T10:06:13.882Z,680.62
2022-09-18T10:11:13.811Z,945.00
2022-09-18T10:16:13.850Z,309.37
2022-09-18T10:21:13.679Z,365.62
2022-09-18T10:26:13.620Z,168.75
2022-09-18T10:31:13.609Z,135.00
2022-09-18T10:36:13.487Z,320.62
2022-09-18T10:41:13.416Z,354.37
2022-09-18T10:46:13.404Z,365.62
2022-09-18T10:51:13.287Z,438.75
2022-09-18T10:56:13.228Z,461.25
2022-09-18T11:01:13.230Z,866.25
2022-09-18T11:06:13.096Z,1777.50
2022-09-18T11:11:13.025Z,1260.00
2022-09-18T11:16:13.078Z,990.00
2022-09-18T11:21:12.892Z,810.00
2022-09-18T11:26:12.834Z,967.50
2022-09-18T11:31:12.821Z,1175.62
2022-09-18T11:36:12.704Z,1462.50
2022-09-18T11:41:12.629Z,1113.75
2022-09-18T11:46:12.723Z,984.37
2022-09-18T11:51:12.500Z,1136.25
2022-09-18T11:56:12.442Z,1035.00
2022-09-18T12:01:12.368Z,911.25
2022-09-18T12:06:12.311Z,714.37
2022-09-18T12:11:10.880Z,663.75
2022-09-18T12:16:10.867Z,450.00
2022-09-18T12:21:10.739Z,292.50
2022-09-18T12:26:10.677Z,303.75
2022-09-18T12:31:10.698Z,253.12
2022-09-18T12:36:10.543Z,320.62
2022-09-18T12:41:11.134Z,326.25
2022-09-18T12:46:11.150Z,416.25
2022-09-18T12:51:10.997Z,315.00
2022-09-18T12:56:10.932Z,196.87
2022-09-18T13:01:10.937Z,298.12
2022-09-18T13:06:10.790Z,331.87
2022-09-18T13:11:10.712Z,309.37
2022-09-18T13:16:11.460Z,303.75
2022-09-18T13:21:11.302Z,264.37
2022-09-18T13:26:11.240Z,191.25
2022-09-18T13:31:11.222Z,151.87
2022-09-18T13:36:11.096Z,191.25
2022-09-18T13:41:11.023Z,191.25
2022-09-18T13:46:10.956Z,168.75
2022-09-18T13:51:10.877Z,112.50
2022-09-18T13:56:10.820Z,129.37
2022-09-18T14:01:10.835Z,163.12
2022-09-18T14:06:10.688Z,191.25
2022-09-18T14:11:17.758Z,208.12
2022-09-18T14:16:10.597Z,191.25
2022-09-18T14:21:10.482Z,180.00
2022-09-18T14:26:10.428Z,174.37
2022-09-18T14:31:10.439Z,191.25
2022-09-18T14:36:14.520Z,191.25
2022-09-18T14:41:10.227Z,180.00
2022-09-18T14:46:10.215Z,168.75
2022-09-18T14:51:10.102Z,168.75
2022-09-18T14:56:10.048Z,157.50
2022-09-18T15:01:10.011Z,163.12
2022-09-18T15:06:09.921Z,151.87
2022-09-18T15:11:09.852Z,157.50
2022-09-18T15:16:09.856Z,151.87
2022-09-18T15:21:09.731Z,123.75
2022-09-18T15:26:09.675Z,123.75
2022-09-18T15:31:09.678Z,123.75
2022-09-18T15:36:09.556Z,118.12
2022-09-18T15:41:09.484Z,101.25
2022-09-18T15:46:09.426Z,84.37
2022-09-18T15:51:09.376Z,67.50
2022-09-18T15:56:09.310Z,61.87
2022-09-18T16:01:09.312Z,61.87
2022-09-18T16:06:09.164Z,67.50
2022-09-18T16:11:09.089Z,106.87
2022-09-18T16:16:09.127Z,106.87
2022-09-18T16:21:08.956Z,90.00
2022-09-18T16:26:08.895Z,95.62
2022-09-18T16:31:08.872Z,84.37
2022-09-18T16:36:08.763Z,67.50
2022-09-18T16:41:08.691Z,61.87
2022-09-18T16:46:08.632Z,56.25
2022-09-18T16:51:08.557Z,50.62
2022-09-18T16:56:08.500Z,39.37
2022-09-18T17:01:08.547Z,28.12
2022-09-18T17:06:08.368Z,16.87
2022-09-18T17:11:08.292Z,11.25
2022-09-18T17:16:08.271Z,5.62
2022-09-18T17:21:08.161Z,5.62
2022-09-18T17:26:08.102Z,0.00
2022-09-18T17:31:08.062Z,0.00
2022-09-18T17:36:07.971Z,0.00
2022-09-18T17:41:07.899Z,0.00
2022-09-18T17:46:07.841Z,0.00
2022-09-18T17:51:07.768Z,0.00
2022-09-18T17:56:07.709Z,0.00
2022-09-18T18:01:07.751Z,0.00
2022-09-18T18:06:07.579Z,0.00
2022-09-18T18:11:07.513Z,0.00
2022-09-18T18:16:07.495Z,0.00
2022-09-18T18:21:07.377Z,0.00
2022-09-18T18:26:07.317Z,0.00
2022-09-18T18:31:07.322Z,0.00
2022-09-18T18:36:07.186Z,0.00
2022-09-18T18:41:07.114Z,0.00
2022-09-18T18:46:07.059Z,0.00
2022-09-18T18:51:06.982Z,0.00
2022-09-18T18:56:06.925Z,0.00
2022-09-18T19:01:07.027Z,0.00
2022-09-18T19:06:06.794Z,0.00
2022-09-18T19:11:06.721Z,0.00
2022-09-18T19:16:06.734Z,0.00
2022-09-18T19:21:06.584Z,0.00
2022-09-18T19:26:06.528Z,0.00
2022-09-18T19:31:06.523Z,0.00
2022-09-18T19:36:06.395Z,0.00
2022-09-18T19:41:06.332Z,0.00
2022-09-18T19:46:06.261Z,0.00
2022-09-18T19:51:06.342Z,0.00
2022-09-18T19:56:06.381Z,0.00
2022-09-18T20:01:06.411Z,0.00
2022-09-18T20:06:06.350Z,0.00
2022-09-18T20:11:06.327Z,0.00
2022-09-18T20:16:06.452Z,0.00
2022-09-18T20:21:05.796Z,0.00
2022-09-18T20:26:05.739Z,0.00
2022-09-18T20:31:05.711Z,0.00
2022-09-18T20:36:05.605Z,0.00
2022-09-18T20:41:06.956Z,0.00
2022-09-18T20:46:05.474Z,0.00
2022-09-18T20:51:05.406Z,0.00
2022-09-18T20:56:05.342Z,0.00
2022-09-18T21:01:05.333Z,0.00
2022-09-18T21:06:21.456Z,0.00
2022-09-18T21:11:06.432Z,0.00
2022-09-18T21:16:05.161Z,0.00
2022-09-18T21:21:05.007Z,0.00
2022-09-18T21:26:04.951Z,0.00
2022-09-18T21:31:04.928Z,0.00
2022-09-18T21:36:04.821Z,0.00
2022-09-18T21:41:04.750Z,0.00
2022-09-18T21:46:04.690Z,0.00
2022-09-18T21:51:04.618Z,0.00
2022-09-18T21:56:04.560Z,0.00
2022-09-18T22:01:04.522Z,0.00
2022-09-18T22:06:04.431Z,0.00
2022-09-18T22:11:04.358Z,0.00
2022-09-18T22:16:04.363Z,0.00
2022-09-18T22:21:04.226Z,0.00
2022-09-18T22:26:04.171Z,0.00
2022-09-18T22:31:04.217Z,0.00
2022-09-18T22:36:04.036Z,0.00
2022-09-18T22:41:03.963Z,0.00
2022-09-18T22:46:03.905Z,0.00
2022-09-18T22:51:03.834Z,0.00
2022-09-18T22:56:03.775Z,0.00
2022-09-18T23:01:03.702Z,0.00
2022-09-18T23:06:03.642Z,0.00
2022-09-18T23:11:03.569Z,0.00
2022-09-18T23:16:03.550Z,0.00
2022-09-18T23:21:03.438Z,0.00
2022-09-18T23:26:03.380Z,0.00
2022-09-18T23:31:03.323Z,0.00
2022-09-18T23:36:03.248Z,0.00
2022-09-18T23:41:03.176Z,0.00
2022-09-18T23:46:03.126Z,0.00
2022-09-18T23:51:03.042Z,0.00
2022-09-18T23:56:02.983Z,0.00
